sensor_id;sensor_type;location;lat;lon;timestamp;P1;durP1;ratioP1;P2;durP2;ratioP2
7835;SDS011;3963;42.658;23.298;2023-02-28T00:01:05;30.10;;;16.40;;
7835;SDS011;3963;42.658;23.298;2023-02-28T00:03:33;29.07;;;16.57;;
7835;SDS011;3963;42.658;23.298;2023-02-28T00:06:00;21.40;;;12.50;;
7835;SDS011;3963;42.658;23.298;2023-02-28T00:08:27;21.23;;;13.33;;
7835;SDS011;3963;42.658;23.298;2023-02-28T00:10:54;20.53;;;12.67;;
7835;SDS011;3963;42.658;23.298;2023-02-28T00:13:22;25.67;;;14.07;;
7835;SDS011;3963;42.658;23.298;2023-02-28T00:15:58;22.07;;;13.20;;
7835;SDS011;3963;42.658;23.298;2023-02-28T00:18:25;21.83;;;12.60;;
7835;SDS011;3963;42.658;23.298;2023-02-28T00:20:52;15.07;;;9.63;;
7835;SDS011;3963;42.658;23.298;2023-02-28T00:23:19;15.97;;;9.60;;
7835;SDS011;3963;42.658;23.298;2023-02-28T00:25:46;13.30;;;7.80;;
7835;SDS011;3963;42.658;23.298;2023-02-28T00:28:12;13.20;;;8.27;;
7835;SDS011;3963;42.658;23.298;2023-02-28T00:30:40;11.17;;;7.07;;
7835;SDS011;3963;42.658;23.298;2023-02-28T00:33:07;12.20;;;7.33;;
7835;SDS011;3963;42.658;23.298;2023-02-28T00:35:34;11.97;;;7.77;;
7835;SDS011;3963;42.658;23.298;2023-02-28T00:38:01;11.63;;;6.93;;
7835;SDS011;3963;42.658;23.298;2023-02-28T00:40:28;10.83;;;7.27;;
7835;SDS011;3963;42.658;23.298;2023-02-28T00:42:55;16.70;;;8.20;;
7835;SDS011;3963;42.658;23.298;2023-02-28T00:45:21;15.07;;;9.67;;
7835;SDS011;3963;42.658;23.298;2023-02-28T00:47:50;16.73;;;10.20;;
7835;SDS011;3963;42.658;23.298;2023-02-28T00:50:17;20.07;;;11.00;;
7835;SDS011;3963;42.658;23.298;2023-02-28T00:52:44;21.07;;;11.23;;
7835;SDS011;3963;42.658;23.298;2023-02-28T00:55:11;23.57;;;12.17;;
7835;SDS011;3963;42.658;23.298;2023-02-28T00:57:37;23.00;;;12.97;;
7835;SDS011;3963;42.658;23.298;2023-02-28T01:00:05;24.90;;;13.63;;
7835;SDS011;3963;42.658;23.298;2023-02-28T01:02:34;21.10;;;13.47;;
7835;SDS011;3963;42.658;23.298;2023-02-28T01:05:02;23.03;;;13.13;;
7835;SDS011;3963;42.658;23.298;2023-02-28T01:07:29;23.30;;;12.63;;
7835;SDS011;3963;42.658;23.298;2023-02-28T01:09:56;25.23;;;13.27;;
7835;SDS011;3963;42.658;23.298;2023-02-28T01:12:23;20.93;;;13.23;;
7835;SDS011;3963;42.658;23.298;2023-02-28T01:14:50;21.90;;;14.00;;
7835;SDS011;3963;42.658;23.298;2023-02-28T01:17:16;27.33;;;14.37;;
7835;SDS011;3963;42.658;23.298;2023-02-28T01:19:43;25.13;;;13.13;;
7835;SDS011;3963;42.658;23.298;2023-02-28T01:22:11;22.13;;;13.83;;
7835;SDS011;3963;42.658;23.298;2023-02-28T01:24:38;27.63;;;15.17;;
7835;SDS011;3963;42.658;23.298;2023-02-28T01:27:04;27.20;;;14.27;;
7835;SDS011;3963;42.658;23.298;2023-02-28T01:29:31;22.27;;;13.97;;
7835;SDS011;3963;42.658;23.298;2023-02-28T01:31:58;25.53;;;14.83;;
7835;SDS011;3963;42.658;23.298;2023-02-28T01:34:25;27.67;;;15.57;;
7835;SDS011;3963;42.658;23.298;2023-02-28T01:36:52;28.23;;;15.03;;
7835;SDS011;3963;42.658;23.298;2023-02-28T01:39:20;27.33;;;15.50;;
7835;SDS011;3963;42.658;23.298;2023-02-28T01:41:47;31.00;;;16.07;;
7835;SDS011;3963;42.658;23.298;2023-02-28T01:47:17;33.13;;;18.33;;
7835;SDS011;3963;42.658;23.298;2023-02-28T01:49:44;32.63;;;19.83;;
7835;SDS011;3963;42.658;23.298;2023-02-28T01:52:11;35.33;;;22.20;;
7835;SDS011;3963;42.658;23.298;2023-02-28T01:54:50;34.80;;;20.20;;
7835;SDS011;3963;42.658;23.298;2023-02-28T01:57:20;39.90;;;21.47;;
7835;SDS011;3963;42.658;23.298;2023-02-28T01:59:50;43.97;;;21.23;;
7835;SDS011;3963;42.658;23.298;2023-02-28T02:02:20;37.50;;;21.67;;
7835;SDS011;3963;42.658;23.298;2023-02-28T02:04:50;47.47;;;22.33;;
7835;SDS011;3963;42.658;23.298;2023-02-28T02:07:20;46.20;;;23.03;;
7835;SDS011;3963;42.658;23.298;2023-02-28T02:09:49;48.33;;;25.20;;
7835;SDS011;3963;42.658;23.298;2023-02-28T02:12:19;45.20;;;23.50;;
7835;SDS011;3963;42.658;23.298;2023-02-28T02:14:57;47.27;;;24.40;;
7835;SDS011;3963;42.658;23.298;2023-02-28T02:17:32;50.23;;;25.17;;
7835;SDS011;3963;42.658;23.298;2023-02-28T02:26:06;54.93;;;26.57;;
7835;SDS011;3963;42.658;23.298;2023-02-28T02:28:51;57.30;;;25.83;;
7835;SDS011;3963;42.658;23.298;2023-02-28T02:34:43;56.33;;;26.40;;
7835;SDS011;3963;42.658;23.298;2023-02-28T02:37:23;55.77;;;26.93;;
7835;SDS011;3963;42.658;23.298;2023-02-28T02:39:59;55.20;;;27.20;;
7835;SDS011;3963;42.658;23.298;2023-02-28T02:42:35;54.23;;;25.80;;
7835;SDS011;3963;42.658;23.298;2023-02-28T02:45:09;57.20;;;26.67;;
7835;SDS011;3963;42.658;23.298;2023-02-28T02:47:38;52.40;;;25.93;;
7835;SDS011;3963;42.658;23.298;2023-02-28T02:50:11;46.30;;;23.60;;
7835;SDS011;3963;42.658;23.298;2023-02-28T02:52:44;42.63;;;22.67;;
7835;SDS011;3963;42.658;23.298;2023-02-28T02:55:16;47.27;;;24.00;;
7835;SDS011;3963;42.658;23.298;2023-02-28T02:57:45;51.40;;;25.73;;
7835;SDS011;3963;42.658;23.298;2023-02-28T03:00:16;53.70;;;25.20;;
7835;SDS011;3963;42.658;23.298;2023-02-28T03:02:45;48.60;;;24.27;;
7835;SDS011;3963;42.658;23.298;2023-02-28T03:05:18;55.87;;;26.27;;
7835;SDS011;3963;42.658;23.298;2023-02-28T03:07:48;57.00;;;25.27;;
7835;SDS011;3963;42.658;23.298;2023-02-28T03:10:26;55.27;;;24.17;;
7835;SDS011;3963;42.658;23.298;2023-02-28T03:12:58;51.17;;;24.37;;
7835;SDS011;3963;42.658;23.298;2023-02-28T03:15:36;51.83;;;24.03;;
7835;SDS011;3963;42.658;23.298;2023-02-28T03:18:16;48.07;;;23.03;;
7835;SDS011;3963;42.658;23.298;2023-02-28T03:20:54;52.27;;;25.93;;
7835;SDS011;3963;42.658;23.298;2023-02-28T03:23:28;55.23;;;26.50;;
7835;SDS011;3963;42.658;23.298;2023-02-28T03:26:02;58.07;;;27.70;;
7835;SDS011;3963;42.658;23.298;2023-02-28T03:28:35;60.13;;;28.93;;
7835;SDS011;3963;42.658;23.298;2023-02-28T03:31:13;55.13;;;26.70;;
7835;SDS011;3963;42.658;23.298;2023-02-28T03:33:44;56.57;;;26.47;;
7835;SDS011;3963;42.658;23.298;2023-02-28T03:36:21;55.60;;;25.70;;
7835;SDS011;3963;42.658;23.298;2023-02-28T03:38:51;55.67;;;26.37;;
7835;SDS011;3963;42.658;23.298;2023-02-28T03:41:25;55.23;;;25.87;;
7835;SDS011;3963;42.658;23.298;2023-02-28T03:43:58;58.07;;;26.23;;
7835;SDS011;3963;42.658;23.298;2023-02-28T03:46:30;55.90;;;26.90;;
7835;SDS011;3963;42.658;23.298;2023-02-28T03:49:01;48.30;;;25.33;;
7835;SDS011;3963;42.658;23.298;2023-02-28T03:51:34;56.17;;;26.30;;
7835;SDS011;3963;42.658;23.298;2023-02-28T03:54:05;53.53;;;26.50;;
7835;SDS011;3963;42.658;23.298;2023-02-28T03:56:37;51.97;;;25.93;;
7835;SDS011;3963;42.658;23.298;2023-02-28T03:59:08;55.20;;;24.90;;
7835;SDS011;3963;42.658;23.298;2023-02-28T04:01:41;54.00;;;27.20;;
7835;SDS011;3963;42.658;23.298;2023-02-28T04:04:10;54.80;;;26.33;;
7835;SDS011;3963;42.658;23.298;2023-02-28T04:06:39;54.47;;;24.70;;
7835;SDS011;3963;42.658;23.298;2023-02-28T04:09:07;48.80;;;24.07;;
7835;SDS011;3963;42.658;23.298;2023-02-28T04:11:36;47.30;;;21.60;;
7835;SDS011;3963;42.658;23.298;2023-02-28T04:14:05;44.17;;;22.40;;
7835;SDS011;3963;42.658;23.298;2023-02-28T04:16:34;43.20;;;21.20;;
7835;SDS011;3963;42.658;23.298;2023-02-28T04:19:02;40.47;;;21.00;;
7835;SDS011;3963;42.658;23.298;2023-02-28T04:21:30;40.27;;;21.50;;
7835;SDS011;3963;42.658;23.298;2023-02-28T04:24:00;42.13;;;22.53;;
7835;SDS011;3963;42.658;23.298;2023-02-28T04:26:28;37.30;;;19.60;;
7835;SDS011;3963;42.658;23.298;2023-02-28T04:28:55;39.33;;;19.90;;
7835;SDS011;3963;42.658;23.298;2023-02-28T04:31:22;40.67;;;20.53;;
7835;SDS011;3963;42.658;23.298;2023-02-28T04:33:49;39.80;;;21.43;;
7835;SDS011;3963;42.658;23.298;2023-02-28T04:36:16;41.70;;;21.80;;
7835;SDS011;3963;42.658;23.298;2023-02-28T04:38:44;46.77;;;22.97;;
7835;SDS011;3963;42.658;23.298;2023-02-28T04:41:13;47.13;;;21.27;;
7835;SDS011;3963;42.658;23.298;2023-02-28T04:43:40;51.70;;;22.03;;
7835;SDS011;3963;42.658;23.298;2023-02-28T04:46:07;46.03;;;21.33;;
7835;SDS011;3963;42.658;23.298;2023-02-28T04:48:35;40.33;;;20.33;;
7835;SDS011;3963;42.658;23.298;2023-02-28T04:51:03;48.63;;;22.30;;
7835;SDS011;3963;42.658;23.298;2023-02-28T04:53:31;43.43;;;20.27;;
7835;SDS011;3963;42.658;23.298;2023-02-28T04:55:58;41.30;;;18.77;;
7835;SDS011;3963;42.658;23.298;2023-02-28T04:58:26;44.37;;;19.87;;
7835;SDS011;3963;42.658;23.298;2023-02-28T05:00:56;42.87;;;19.97;;
7835;SDS011;3963;42.658;23.298;2023-02-28T05:03:28;48.40;;;20.33;;
7835;SDS011;3963;42.658;23.298;2023-02-28T05:05:55;36.97;;;19.67;;
7835;SDS011;3963;42.658;23.298;2023-02-28T05:08:22;40.93;;;19.47;;
7835;SDS011;3963;42.658;23.298;2023-02-28T05:10:48;35.97;;;18.97;;
7835;SDS011;3963;42.658;23.298;2023-02-28T05:13:15;35.07;;;18.40;;
7835;SDS011;3963;42.658;23.298;2023-02-28T05:15:43;39.33;;;18.30;;
7835;SDS011;3963;42.658;23.298;2023-02-28T05:18:10;40.90;;;17.87;;
7835;SDS011;3963;42.658;23.298;2023-02-28T05:20:37;37.33;;;18.40;;
7835;SDS011;3963;42.658;23.298;2023-02-28T05:23:03;36.77;;;16.97;;
7835;SDS011;3963;42.658;23.298;2023-02-28T05:25:30;32.87;;;16.40;;
7835;SDS011;3963;42.658;23.298;2023-02-28T05:27:57;33.57;;;15.80;;
7835;SDS011;3963;42.658;23.298;2023-02-28T05:30:24;32.90;;;16.00;;
7835;SDS011;3963;42.658;23.298;2023-02-28T05:32:52;38.67;;;17.33;;
7835;SDS011;3963;42.658;23.298;2023-02-28T05:35:18;30.90;;;16.83;;
7835;SDS011;3963;42.658;23.298;2023-02-28T05:37:45;38.33;;;16.47;;
7835;SDS011;3963;42.658;23.298;2023-02-28T05:40:12;33.67;;;15.60;;
7835;SDS011;3963;42.658;23.298;2023-02-28T05:42:39;34.23;;;15.50;;
7835;SDS011;3963;42.658;23.298;2023-02-28T05:45:07;37.43;;;16.77;;
7835;SDS011;3963;42.658;23.298;2023-02-28T05:47:34;36.73;;;16.70;;
7835;SDS011;3963;42.658;23.298;2023-02-28T05:50:03;35.07;;;16.37;;
7835;SDS011;3963;42.658;23.298;2023-02-28T05:52:31;39.70;;;18.53;;
7835;SDS011;3963;42.658;23.298;2023-02-28T05:54:58;33.13;;;16.80;;
7835;SDS011;3963;42.658;23.298;2023-02-28T05:57:24;35.83;;;16.83;;
7835;SDS011;3963;42.658;23.298;2023-02-28T05:59:51;40.07;;;18.17;;
7835;SDS011;3963;42.658;23.298;2023-02-28T06:02:18;34.60;;;17.27;;
7835;SDS011;3963;42.658;23.298;2023-02-28T06:04:44;33.70;;;18.73;;
7835;SDS011;3963;42.658;23.298;2023-02-28T06:07:13;41.00;;;18.93;;
7835;SDS011;3963;42.658;23.298;2023-02-28T06:09:40;39.20;;;19.53;;
7835;SDS011;3963;42.658;23.298;2023-02-28T06:12:06;38.40;;;19.90;;
7835;SDS011;3963;42.658;23.298;2023-02-28T06:14:35;36.83;;;20.43;;
7835;SDS011;3963;42.658;23.298;2023-02-28T06:17:02;40.20;;;19.83;;
7835;SDS011;3963;42.658;23.298;2023-02-28T06:19:29;40.50;;;19.80;;
7835;SDS011;3963;42.658;23.298;2023-02-28T06:21:56;35.03;;;18.93;;
7835;SDS011;3963;42.658;23.298;2023-02-28T06:24:26;40.93;;;20.33;;
7835;SDS011;3963;42.658;23.298;2023-02-28T06:26:54;42.70;;;20.40;;
7835;SDS011;3963;42.658;23.298;2023-02-28T06:29:21;47.17;;;25.03;;
7835;SDS011;3963;42.658;23.298;2023-02-28T06:31:47;47.93;;;22.57;;
7835;SDS011;3963;42.658;23.298;2023-02-28T06:34:15;44.83;;;22.93;;
7835;SDS011;3963;42.658;23.298;2023-02-28T06:36:43;42.93;;;20.60;;
7835;SDS011;3963;42.658;23.298;2023-02-28T06:39:10;55.70;;;24.40;;
7835;SDS011;3963;42.658;23.298;2023-02-28T06:41:38;47.30;;;23.40;;
7835;SDS011;3963;42.658;23.298;2023-02-28T06:44:05;41.87;;;22.40;;
7835;SDS011;3963;42.658;23.298;2023-02-28T06:46:38;41.10;;;22.47;;
7835;SDS011;3963;42.658;23.298;2023-02-28T06:49:05;43.90;;;22.70;;
7835;SDS011;3963;42.658;23.298;2023-02-28T06:51:34;48.33;;;23.87;;
7835;SDS011;3963;42.658;23.298;2023-02-28T06:54:01;48.13;;;23.70;;
7835;SDS011;3963;42.658;23.298;2023-02-28T06:56:28;45.77;;;23.57;;
7835;SDS011;3963;42.658;23.298;2023-02-28T06:58:56;47.73;;;24.77;;
7835;SDS011;3963;42.658;23.298;2023-02-28T07:01:23;47.60;;;24.83;;
7835;SDS011;3963;42.658;23.298;2023-02-28T07:03:50;48.90;;;25.00;;
7835;SDS011;3963;42.658;23.298;2023-02-28T07:06:18;50.97;;;24.40;;
7835;SDS011;3963;42.658;23.298;2023-02-28T07:08:45;50.00;;;25.53;;
7835;SDS011;3963;42.658;23.298;2023-02-28T07:11:12;49.60;;;25.50;;
7835;SDS011;3963;42.658;23.298;2023-02-28T07:13:39;49.33;;;25.70;;
7835;SDS011;3963;42.658;23.298;2023-02-28T07:16:08;48.20;;;25.20;;
7835;SDS011;3963;42.658;23.298;2023-02-28T07:18:37;48.50;;;24.97;;
7835;SDS011;3963;42.658;23.298;2023-02-28T07:21:04;56.47;;;26.63;;
7835;SDS011;3963;42.658;23.298;2023-02-28T07:23:32;51.43;;;24.90;;
7835;SDS011;3963;42.658;23.298;2023-02-28T07:25:59;51.90;;;25.87;;
7835;SDS011;3963;42.658;23.298;2023-02-28T07:28:26;51.37;;;26.30;;
7835;SDS011;3963;42.658;23.298;2023-02-28T07:30:53;54.53;;;26.33;;
7835;SDS011;3963;42.658;23.298;2023-02-28T07:33:21;50.40;;;23.83;;
7835;SDS011;3963;42.658;23.298;2023-02-28T07:35:49;50.10;;;24.37;;
7835;SDS011;3963;42.658;23.298;2023-02-28T07:38:16;51.13;;;24.87;;
7835;SDS011;3963;42.658;23.298;2023-02-28T07:40:42;48.57;;;25.30;;
7835;SDS011;3963;42.658;23.298;2023-02-28T07:43:09;48.47;;;24.77;;
7835;SDS011;3963;42.658;23.298;2023-02-28T07:45:36;49.50;;;24.03;;
7835;SDS011;3963;42.658;23.298;2023-02-28T07:48:03;41.50;;;23.53;;
7835;SDS011;3963;42.658;23.298;2023-02-28T07:50:31;50.03;;;25.23;;
7835;SDS011;3963;42.658;23.298;2023-02-28T07:52:59;50.30;;;24.90;;
7835;SDS011;3963;42.658;23.298;2023-02-28T07:55:26;45.80;;;24.53;;
7835;SDS011;3963;42.658;23.298;2023-02-28T07:57:53;50.57;;;24.27;;
7835;SDS011;3963;42.658;23.298;2023-02-28T08:00:20;57.27;;;25.60;;
7835;SDS011;3963;42.658;23.298;2023-02-28T08:02:47;55.60;;;25.77;;
7835;SDS011;3963;42.658;23.298;2023-02-28T08:05:14;45.43;;;22.73;;
7835;SDS011;3963;42.658;23.298;2023-02-28T08:07:42;53.93;;;25.87;;
7835;SDS011;3963;42.658;23.298;2023-02-28T08:10:09;54.17;;;25.53;;
7835;SDS011;3963;42.658;23.298;2023-02-28T08:12:36;47.23;;;25.53;;
7835;SDS011;3963;42.658;23.298;2023-02-28T08:15:03;57.63;;;26.93;;
7835;SDS011;3963;42.658;23.298;2023-02-28T08:17:31;49.70;;;26.57;;
7835;SDS011;3963;42.658;23.298;2023-02-28T08:19:57;56.67;;;26.40;;
7835;SDS011;3963;42.658;23.298;2023-02-28T08:22:24;63.27;;;29.47;;
7835;SDS011;3963;42.658;23.298;2023-02-28T08:24:52;55.27;;;28.20;;
7835;SDS011;3963;42.658;23.298;2023-02-28T08:27:19;61.77;;;27.90;;
7835;SDS011;3963;42.658;23.298;2023-02-28T08:29:45;65.37;;;29.00;;
7835;SDS011;3963;42.658;23.298;2023-02-28T08:32:12;57.53;;;27.57;;
7835;SDS011;3963;42.658;23.298;2023-02-28T08:34:39;60.47;;;28.60;;
7835;SDS011;3963;42.658;23.298;2023-02-28T08:37:06;51.57;;;26.23;;
7835;SDS011;3963;42.658;23.298;2023-02-28T08:39:33;53.43;;;27.30;;
7835;SDS011;3963;42.658;23.298;2023-02-28T08:42:02;57.47;;;26.70;;
7835;SDS011;3963;42.658;23.298;2023-02-28T08:44:29;57.83;;;26.37;;
7835;SDS011;3963;42.658;23.298;2023-02-28T08:46:56;55.77;;;27.13;;
7835;SDS011;3963;42.658;23.298;2023-02-28T08:49:23;56.23;;;27.20;;
7835;SDS011;3963;42.658;23.298;2023-02-28T08:51:49;56.63;;;28.97;;
7835;SDS011;3963;42.658;23.298;2023-02-28T08:54:16;64.93;;;31.17;;
7835;SDS011;3963;42.658;23.298;2023-02-28T08:56:44;66.50;;;31.37;;
7835;SDS011;3963;42.658;23.298;2023-02-28T08:59:13;68.13;;;31.63;;
7835;SDS011;3963;42.658;23.298;2023-02-28T09:01:40;75.97;;;33.07;;
7835;SDS011;3963;42.658;23.298;2023-02-28T09:04:08;67.23;;;33.03;;
7835;SDS011;3963;42.658;23.298;2023-02-28T09:06:36;80.27;;;31.50;;
7835;SDS011;3963;42.658;23.298;2023-02-28T09:09:03;77.93;;;33.67;;
7835;SDS011;3963;42.658;23.298;2023-02-28T09:11:32;73.40;;;34.00;;
7835;SDS011;3963;42.658;23.298;2023-02-28T09:14:00;72.73;;;32.60;;
7835;SDS011;3963;42.658;23.298;2023-02-28T09:16:30;68.30;;;31.93;;
7835;SDS011;3963;42.658;23.298;2023-02-28T09:18:57;72.77;;;32.73;;
7835;SDS011;3963;42.658;23.298;2023-02-28T09:21:24;71.67;;;31.53;;
7835;SDS011;3963;42.658;23.298;2023-02-28T09:23:52;77.10;;;32.97;;
7835;SDS011;3963;42.658;23.298;2023-02-28T09:26:20;74.87;;;32.47;;
7835;SDS011;3963;42.658;23.298;2023-02-28T09:28:48;71.17;;;32.70;;
7835;SDS011;3963;42.658;23.298;2023-02-28T09:31:16;66.47;;;32.70;;
7835;SDS011;3963;42.658;23.298;2023-02-28T09:33:47;68.43;;;32.07;;
7835;SDS011;3963;42.658;23.298;2023-02-28T09:36:14;68.30;;;33.37;;
7835;SDS011;3963;42.658;23.298;2023-02-28T09:38:41;73.30;;;32.37;;
7835;SDS011;3963;42.658;23.298;2023-02-28T09:41:11;75.77;;;32.80;;
7835;SDS011;3963;42.658;23.298;2023-02-28T09:43:41;70.63;;;32.33;;
7835;SDS011;3963;42.658;23.298;2023-02-28T09:46:14;67.83;;;31.77;;
7835;SDS011;3963;42.658;23.298;2023-02-28T09:48:53;72.23;;;31.60;;
7835;SDS011;3963;42.658;23.298;2023-02-28T09:51:30;69.13;;;31.77;;
7835;SDS011;3963;42.658;23.298;2023-02-28T09:54:03;68.97;;;31.13;;
7835;SDS011;3963;42.658;23.298;2023-02-28T09:56:32;62.50;;;31.70;;
7835;SDS011;3963;42.658;23.298;2023-02-28T09:59:05;66.00;;;32.37;;
7835;SDS011;3963;42.658;23.298;2023-02-28T10:01:43;59.73;;;30.10;;
7835;SDS011;3963;42.658;23.298;2023-02-28T10:04:25;71.43;;;30.13;;
7835;SDS011;3963;42.658;23.298;2023-02-28T10:07:11;63.23;;;29.00;;
7835;SDS011;3963;42.658;23.298;2023-02-28T10:09:45;63.63;;;29.43;;
7835;SDS011;3963;42.658;23.298;2023-02-28T10:12:15;65.33;;;29.77;;
7835;SDS011;3963;42.658;23.298;2023-02-28T10:14:44;56.27;;;28.73;;
7835;SDS011;3963;42.658;23.298;2023-02-28T10:17:14;62.60;;;29.40;;
7835;SDS011;3963;42.658;23.298;2023-02-28T10:19:49;59.83;;;28.87;;
7835;SDS011;3963;42.658;23.298;2023-02-28T10:22:25;56.87;;;28.63;;
7835;SDS011;3963;42.658;23.298;2023-02-28T10:24:58;61.90;;;28.53;;
7835;SDS011;3963;42.658;23.298;2023-02-28T10:27:29;64.87;;;29.70;;
7835;SDS011;3963;42.658;23.298;2023-02-28T10:29:57;60.57;;;28.67;;
7835;SDS011;3963;42.658;23.298;2023-02-28T10:32:27;61.47;;;28.87;;
7835;SDS011;3963;42.658;23.298;2023-02-28T10:34:59;53.63;;;26.13;;
7835;SDS011;3963;42.658;23.298;2023-02-28T10:37:32;51.40;;;26.23;;
7835;SDS011;3963;42.658;23.298;2023-02-28T10:40:03;37.73;;;18.97;;
7835;SDS011;3963;42.658;23.298;2023-02-28T10:42:32;25.43;;;11.70;;
7835;SDS011;3963;42.658;23.298;2023-02-28T10:45:04;23.57;;;11.20;;
7835;SDS011;3963;42.658;23.298;2023-02-28T10:47:33;28.57;;;11.47;;
7835;SDS011;3963;42.658;23.298;2023-02-28T10:50:04;23.40;;;10.77;;
7835;SDS011;3963;42.658;23.298;2023-02-28T10:52:32;23.83;;;11.90;;
7835;SDS011;3963;42.658;23.298;2023-02-28T10:55:15;30.97;;;12.33;;
7835;SDS011;3963;42.658;23.298;2023-02-28T10:57:46;23.77;;;11.97;;
7835;SDS011;3963;42.658;23.298;2023-02-28T11:00:15;25.33;;;12.40;;
7835;SDS011;3963;42.658;23.298;2023-02-28T11:02:44;22.90;;;11.70;;
7835;SDS011;3963;42.658;23.298;2023-02-28T11:05:26;29.07;;;13.50;;
7835;SDS011;3963;42.658;23.298;2023-02-28T11:07:55;25.80;;;12.27;;
7835;SDS011;3963;42.658;23.298;2023-02-28T11:10:28;21.63;;;11.00;;
7835;SDS011;3963;42.658;23.298;2023-02-28T11:12:59;24.87;;;12.57;;
7835;SDS011;3963;42.658;23.298;2023-02-28T11:15:29;29.23;;;13.60;;
7835;SDS011;3963;42.658;23.298;2023-02-28T11:17:58;25.20;;;12.20;;
7835;SDS011;3963;42.658;23.298;2023-02-28T11:20:29;27.83;;;11.60;;
7835;SDS011;3963;42.658;23.298;2023-02-28T11:22:58;21.30;;;12.43;;
7835;SDS011;3963;42.658;23.298;2023-02-28T11:25:28;24.70;;;12.20;;
7835;SDS011;3963;42.658;23.298;2023-02-28T11:27:58;28.47;;;13.67;;
7835;SDS011;3963;42.658;23.298;2023-02-28T11:30:28;28.20;;;12.17;;
7835;SDS011;3963;42.658;23.298;2023-02-28T11:32:58;29.03;;;13.77;;
7835;SDS011;3963;42.658;23.298;2023-02-28T11:35:26;35.20;;;14.67;;
7835;SDS011;3963;42.658;23.298;2023-02-28T11:38:00;30.63;;;13.43;;
7835;SDS011;3963;42.658;23.298;2023-02-28T11:40:29;33.83;;;14.13;;
7835;SDS011;3963;42.658;23.298;2023-02-28T11:43:04;27.23;;;15.07;;
7835;SDS011;3963;42.658;23.298;2023-02-28T11:45:45;33.17;;;14.70;;
7835;SDS011;3963;42.658;23.298;2023-02-28T11:48:26;31.97;;;14.77;;
7835;SDS011;3963;42.658;23.298;2023-02-28T11:51:02;26.43;;;13.37;;
7835;SDS011;3963;42.658;23.298;2023-02-28T11:53:44;23.60;;;13.33;;
7835;SDS011;3963;42.658;23.298;2023-02-28T11:56:22;27.67;;;14.27;;
7835;SDS011;3963;42.658;23.298;2023-02-28T11:58:55;23.97;;;12.47;;
7835;SDS011;3963;42.658;23.298;2023-02-28T12:01:42;34.67;;;14.13;;
7835;SDS011;3963;42.658;23.298;2023-02-28T12:04:25;32.70;;;14.23;;
7835;SDS011;3963;42.658;23.298;2023-02-28T12:07:07;26.93;;;15.00;;
7835;SDS011;3963;42.658;23.298;2023-02-28T12:09:42;31.43;;;15.07;;
7835;SDS011;3963;42.658;23.298;2023-02-28T12:12:21;36.27;;;14.13;;
7835;SDS011;3963;42.658;23.298;2023-02-28T12:18:12;27.10;;;14.33;;
7835;SDS011;3963;42.658;23.298;2023-02-28T12:20:53;23.40;;;13.73;;
7835;SDS011;3963;42.658;23.298;2023-02-28T12:26:34;26.90;;;13.20;;
7835;SDS011;3963;42.658;23.298;2023-02-28T12:29:08;28.17;;;12.83;;
7835;SDS011;3963;42.658;23.298;2023-02-28T12:31:41;28.77;;;14.47;;
7835;SDS011;3963;42.658;23.298;2023-02-28T12:34:15;30.27;;;14.37;;
7835;SDS011;3963;42.658;23.298;2023-02-28T12:36:45;26.57;;;14.03;;
7835;SDS011;3963;42.658;23.298;2023-02-28T12:39:16;30.80;;;14.43;;
7835;SDS011;3963;42.658;23.298;2023-02-28T12:41:51;24.87;;;13.17;;
7835;SDS011;3963;42.658;23.298;2023-02-28T12:44:21;31.57;;;15.00;;
7835;SDS011;3963;42.658;23.298;2023-02-28T12:46:53;21.53;;;12.67;;
7835;SDS011;3963;42.658;23.298;2023-02-28T12:49:25;25.00;;;12.97;;
7835;SDS011;3963;42.658;23.298;2023-02-28T12:51:57;29.73;;;12.83;;
7835;SDS011;3963;42.658;23.298;2023-02-28T12:54:28;29.73;;;14.17;;
7835;SDS011;3963;42.658;23.298;2023-02-28T12:57:02;25.57;;;12.80;;
7835;SDS011;3963;42.658;23.298;2023-02-28T12:59:37;26.83;;;13.30;;
7835;SDS011;3963;42.658;23.298;2023-02-28T13:02:18;32.50;;;13.60;;
7835;SDS011;3963;42.658;23.298;2023-02-28T13:05:06;26.83;;;12.90;;
7835;SDS011;3963;42.658;23.298;2023-02-28T13:10:43;27.47;;;13.27;;
7835;SDS011;3963;42.658;23.298;2023-02-28T13:13:13;26.57;;;14.07;;
7835;SDS011;3963;42.658;23.298;2023-02-28T13:15:56;33.17;;;12.80;;
7835;SDS011;3963;42.658;23.298;2023-02-28T13:18:32;25.80;;;12.70;;
7835;SDS011;3963;42.658;23.298;2023-02-28T13:21:02;28.40;;;13.67;;
7835;SDS011;3963;42.658;23.298;2023-02-28T13:23:56;24.90;;;11.80;;
7835;SDS011;3963;42.658;23.298;2023-02-28T13:29:28;26.03;;;13.20;;
7835;SDS011;3963;42.658;23.298;2023-02-28T13:35:13;33.20;;;13.03;;
7835;SDS011;3963;42.658;23.298;2023-02-28T13:37:47;23.70;;;11.60;;
7835;SDS011;3963;42.658;23.298;2023-02-28T13:40:32;23.50;;;10.97;;
7835;SDS011;3963;42.658;23.298;2023-02-28T13:43:02;17.83;;;9.07;;
7835;SDS011;3963;42.658;23.298;2023-02-28T13:45:36;19.60;;;9.37;;
7835;SDS011;3963;42.658;23.298;2023-02-28T13:48:05;19.03;;;8.93;;
7835;SDS011;3963;42.658;23.298;2023-02-28T13:50:42;21.70;;;10.13;;
7835;SDS011;3963;42.658;23.298;2023-02-28T13:56:10;19.40;;;10.00;;
7835;SDS011;3963;42.658;23.298;2023-02-28T13:58:53;18.87;;;8.90;;
7835;SDS011;3963;42.658;23.298;2023-02-28T14:01:25;21.17;;;9.50;;
7835;SDS011;3963;42.658;23.298;2023-02-28T14:04:09;22.20;;;10.70;;
7835;SDS011;3963;42.658;23.298;2023-02-28T14:06:48;22.20;;;10.50;;
7835;SDS011;3963;42.658;23.298;2023-02-28T14:09:18;22.30;;;11.50;;
7835;SDS011;3963;42.658;23.298;2023-02-28T14:11:51;20.37;;;10.50;;
7835;SDS011;3963;42.658;23.298;2023-02-28T14:17:24;27.77;;;11.47;;
7835;SDS011;3963;42.658;23.298;2023-02-28T14:19:52;25.57;;;11.00;;
7835;SDS011;3963;42.658;23.298;2023-02-28T14:22:25;20.30;;;9.20;;
7835;SDS011;3963;42.658;23.298;2023-02-28T14:25:10;23.37;;;10.10;;
7835;SDS011;3963;42.658;23.298;2023-02-28T14:27:47;20.67;;;10.73;;
7835;SDS011;3963;42.658;23.298;2023-02-28T14:33:31;20.40;;;10.13;;
7835;SDS011;3963;42.658;23.298;2023-02-28T14:36:09;19.37;;;9.33;;
7835;SDS011;3963;42.658;23.298;2023-02-28T14:38:42;19.97;;;9.53;;
7835;SDS011;3963;42.658;23.298;2023-02-28T14:41:14;21.13;;;9.73;;
7835;SDS011;3963;42.658;23.298;2023-02-28T14:43:48;20.80;;;10.30;;
7835;SDS011;3963;42.658;23.298;2023-02-28T14:46:17;18.77;;;9.33;;
7835;SDS011;3963;42.658;23.298;2023-02-28T14:48:47;21.90;;;10.83;;
7835;SDS011;3963;42.658;23.298;2023-02-28T14:51:18;22.23;;;9.63;;
7835;SDS011;3963;42.658;23.298;2023-02-28T14:53:48;19.70;;;9.83;;
7835;SDS011;3963;42.658;23.298;2023-02-28T14:56:24;21.60;;;9.83;;
7835;SDS011;3963;42.658;23.298;2023-02-28T14:59:03;19.13;;;9.63;;
7835;SDS011;3963;42.658;23.298;2023-02-28T15:01:31;21.27;;;9.90;;
7835;SDS011;3963;42.658;23.298;2023-02-28T15:04:03;21.87;;;11.13;;
7835;SDS011;3963;42.658;23.298;2023-02-28T15:06:32;19.27;;;9.87;;
7835;SDS011;3963;42.658;23.298;2023-02-28T15:09:14;28.60;;;11.30;;
7835;SDS011;3963;42.658;23.298;2023-02-28T15:11:44;28.83;;;10.83;;
7835;SDS011;3963;42.658;23.298;2023-02-28T15:14:18;22.23;;;10.17;;
7835;SDS011;3963;42.658;23.298;2023-02-28T15:16:47;26.50;;;11.03;;
7835;SDS011;3963;42.658;23.298;2023-02-28T15:19:21;24.53;;;12.37;;
7835;SDS011;3963;42.658;23.298;2023-02-28T15:21:51;26.63;;;12.07;;
7835;SDS011;3963;42.658;23.298;2023-02-28T15:24:26;27.83;;;12.53;;
7835;SDS011;3963;42.658;23.298;2023-02-28T15:26:58;22.87;;;11.87;;
7835;SDS011;3963;42.658;23.298;2023-02-28T15:29:30;23.00;;;12.00;;
7835;SDS011;3963;42.658;23.298;2023-02-28T15:32:04;24.07;;;11.57;;